Ira, Michigan
Current Conditions -  °F | °C
As of 4:55 PM on Friday 19 Dec 2014 (Local Time) from KMTC Reporting Station
Few Clouds Few Clouds  
Wind Chill: 29°   Ceiling: Unl
Heat Index: 29°   Visibility: 12mi
Dew Point: 20°   Wind: 3mph
Humidity: 69%   Direction: 10°N
Pressure: 30.25"   Gusts: NA
Location:  42.7011°N, 82.659°W
Report Text: KMTC 192155Z 01003KT 12SM FEW030 M01/M06 A3025 RMK SLP258 T10141065
Loading
Personal Weather Stations






























Interactive Weather Map New forecast layout! Learn more

10-Day Weather Forecast

Advertisements
Track Severe Weather on mobile